Portada
METAR-TAF:

METAR-TAF

Aeroports :

Àqaba, Jordània

latitud: 29-38N, longitud: 035-01E, altitud: 53 m

Observació

L'informe es va fer fa 33 minuts, a les 20:00 UTC
Vent 12 kt del Nord
Temperatura 36°C
Humitat 15%
Pressió 1004 hPa
Visibilitat 10 km o més
sense núvols per sota de 1500 mi sense presència de cumulonimbus.

METAR: OJAQ 182000Z 36012KT CAVOK 36/05 Q1004 NOSIG

Hora: 23:33 (20:33 UTC)

Pronòstic

L'informe es va fer fa 3 hores i 33 minuts, a les 17:00 UTC
Pronòstic vàlid del 18 a les 18 UTC al 19 a les 24 UTC
Vent 9 kt del Nord
Visibilitat: 8000 m
Probabilitat 30% :
Temporalment
l' 19 a les 12 UTC al 19 a les 18 UTC
Vent 16 kt del Nord
Visibilitat: 5000 m
calitja,

TAF: OJAQ 181700Z 1818/1924 36009KT 8000 NSC PROB30 TEMPO 1912/1918 01016KT 5000 HZ

Observacions i pronòstics meteorològics de més de 4000 aeroports (METAR i TAF).

Les estacions disponibles són els punts grocs i vermells al mapa.

Posi el ratolí al punt desitjat per veure el nom de l'estació.

Feu clic per veure les observacions i els pronòstics meteorològics.

Per canviar el mapa: feu clic els botons verds amb una creu de color negre per apropar; al botó verd amb un guió per allunyar la imatge; o en les fletxes verdes per a mapes adjacents.


METAR-TAF: